Time;durP1;ratioP1;P1;durP2;ratioP2;P2;SDS_P1;SDS_P2;PMS_P1;PMS_P2;Temp;Humidity;BMP_temperature;BMP_pressure;BME280_temperature;BME280_humidity;BME280_pressure;Samples;Min_cycle;Max_cycle;Signal;HPM_P1;HPM_P2
2021/03/13 00:01:23;;;;;;;10.80;2.33;;;;;;;6.28;74.58;99842.44;4965728;28;20082;-61
2021/03/13 00:03:49;;;;;;;12.93;2.63;;;;;;;6.28;74.35;99844.16;4970738;28;20042;-62
2021/03/13 00:06:15;;;;;;;15.35;2.95;;;;;;;6.16;75.24;99837.47;4973970;28;20081;-62
2021/03/13 00:08:41;;;;;;;10.25;2.03;;;;;;;6.12;75.79;99834.06;4964819;28;20137;-62
2021/03/13 00:11:09;;;;;;;12.35;1.85;;;;;;;6.17;75.06;99832.25;4964970;28;20390;-59
2021/03/13 00:13:36;;;;;;;13.52;1.92;;;;;;;6.33;76.31;99825.13;4970582;28;20061;-62
2021/03/13 00:16:04;;;;;;;12.00;1.40;;;;;;;6.43;74.31;99812.91;4964233;28;20051;-60
2021/03/13 00:18:30;;;;;;;12.85;2.08;;;;;;;6.37;74.52;99818.16;4967675;28;20051;-63
2021/03/13 00:20:56;;;;;;;10.52;1.70;;;;;;;6.44;74.31;99816.34;4962890;28;20055;-60
2021/03/13 00:23:22;;;;;;;13.02;2.00;;;;;;;6.39;74.48;99813.84;4973970;28;20054;-63
2021/03/13 00:25:48;;;;;;;13.43;2.85;;;;;;;6.36;74.18;99816.47;4974930;28;20516;-58
2021/03/13 00:28:15;;;;;;;10.85;2.78;;;;;;;6.36;75.09;99808.72;4974109;28;20062;-62
2021/03/13 00:30:43;;;;;;;14.43;1.90;;;;;;;6.34;74.92;99805.31;4972148;28;20047;-61
2021/03/13 00:33:12;;;;;;;8.10;1.88;;;;;;;6.33;74.89;99803.63;4972744;28;21982;-63
2021/03/13 00:35:39;;;;;;;17.70;3.50;;;;;;;6.48;74.73;99808.50;4974575;28;20214;-61
2021/03/13 00:38:06;;;;;;;9.88;1.73;;;;;;;6.35;75.72;99800.13;4975038;28;20051;-61
2021/03/13 00:40:34;;;;;;;9.60;1.95;;;;;;;6.28;76.34;99790.78;4971784;28;20106;-62
2021/03/13 00:43:01;;;;;;;9.88;1.67;;;;;;;6.25;76.14;99779.63;4972812;28;20106;-60
2021/03/13 00:45:29;;;;;;;7.28;2.20;;;;;;;6.46;76.28;99784.44;4968525;28;20043;-62
2021/03/13 00:47:55;;;;;;;11.27;1.67;;;;;;;6.37;76.41;99785.47;4973268;28;20058;-62
2021/03/13 00:50:24;;;;;;;12.95;2.53;;;;;;;6.38;76.82;99791.47;4968478;28;20065;-62
2021/03/13 00:52:51;;;;;;;10.60;2.10;;;;;;;6.36;77.10;99783.75;4974779;28;20054;-62
2021/03/13 00:55:17;;;;;;;12.68;2.28;;;;;;;6.36;77.35;99770.84;4971607;28;20047;-61
2021/03/13 00:57:43;;;;;;;11.48;2.13;;;;;;;6.46;77.21;99761.19;4971191;28;20066;-61
2021/03/13 01:00:12;;;;;;;13.02;1.77;;;;;;;6.50;77.70;99761.97;4970799;28;20432;-62
2021/03/13 01:02:39;;;;;;;10.55;2.05;;;;;;;6.46;77.29;99756.00;4977328;28;20067;-61
2021/03/13 01:05:07;;;;;;;18.80;2.17;;;;;;;6.35;77.92;99751.06;4975310;28;20050;-61
2021/03/13 01:07:33;;;;;;;10.80;2.97;;;;;;;6.41;77.98;99750.09;4973100;28;20051;-62
2021/03/13 01:10:00;;;;;;;13.85;2.97;;;;;;;6.43;77.80;99747.47;4973283;28;20051;-62
2021/03/13 01:12:26;;;;;;;8.48;2.35;;;;;;;6.49;78.04;99727.56;4962976;28;20468;-62
2021/03/13 01:14:52;;;;;;;11.75;2.13;;;;;;;6.42;78.23;99730.28;4972354;28;20170;-61
2021/03/13 01:17:18;;;;;;;8.90;2.30;;;;;;;6.25;79.21;99721.09;4973304;28;20599;-61
2021/03/13 01:19:45;;;;;;;18.83;3.45;;;;;;;6.26;79.88;99719.34;4973053;28;20067;-62
2021/03/13 01:22:11;;;;;;;7.25;2.13;;;;;;;6.20;80.10;99713.44;4972614;28;20051;-62
2021/03/13 01:24:40;;;;;;;10.68;2.90;;;;;;;6.16;80.49;99704.03;4974476;28;20464;-62
2021/03/13 01:29:36;;;;;;;10.00;2.20;;;;;;;6.26;80.50;99678.03;5007418;22;20423;-61
2021/03/13 01:32:03;;;;;;;12.27;3.40;;;;;;;6.15;81.17;99673.94;4981051;28;20053;-60
2021/03/13 01:34:30;;;;;;;5.93;2.25;;;;;;;6.14;81.38;99672.22;4983206;28;20124;-64
2021/03/13 01:36:57;;;;;;;9.38;2.30;;;;;;;6.13;81.54;99662.81;4982043;28;20046;-60
2021/03/13 01:39:23;;;;;;;17.30;3.53;;;;;;;6.13;81.47;99665.38;4985210;28;20097;-61
2021/03/13 01:41:49;;;;;;;11.32;2.45;;;;;;;6.14;81.73;99661.91;4991292;28;20054;-60
2021/03/13 01:44:15;;;;;;;11.95;2.58;;;;;;;6.13;81.95;99665.38;4989722;28;20055;-63
2021/03/13 01:46:41;;;;;;;9.65;2.67;;;;;;;6.13;81.81;99647.31;4984040;28;20053;-61
2021/03/13 01:49:14;;;;;;;10.15;2.15;;;;;;;6.07;81.61;99640.53;4983158;28;20046;-63
2021/03/13 01:51:40;;;;;;;11.80;2.03;;;;;;;6.06;82.12;99635.38;4979949;28;20420;-61
2021/03/13 01:54:07;;;;;;;9.90;3.08;;;;;;;5.98;83.02;99629.47;4985295;28;20476;-61
2021/03/13 01:56:34;;;;;;;7.72;2.20;;;;;;;6.07;82.67;99622.47;4990625;28;20050;-63
2021/03/13 01:59:00;;;;;;;7.40;2.22;;;;;;;6.14;82.57;99618.00;4986419;28;20051;-66
2021/03/13 02:01:26;;;;;;;11.55;2.80;;;;;;;5.98;82.89;99616.56;4991763;28;20042;-63
2021/03/13 02:03:52;;;;;;;11.93;3.85;;;;;;;5.95;83.46;99607.16;4988697;28;20070;-64
2021/03/13 02:06:18;;;;;;;7.70;2.30;;;;;;;5.90;83.39;99594.34;4988155;28;20058;-63
2021/03/13 02:08:49;;;;;;;8.25;2.03;;;;;;;6.07;83.54;99582.88;4984839;28;20126;-64
2021/03/13 02:11:26;;;;;;;8.23;2.40;;;;;;;5.94;83.61;99578.81;4984460;28;20055;-66
2021/03/13 02:13:59;;;;;;;9.38;2.28;;;;;;;6.04;83.83;99578.63;4980901;28;20416;-63
2021/03/13 02:16:32;;;;;;;8.82;2.40;;;;;;;6.05;83.69;99582.91;4983665;28;20061;-62
2021/03/13 02:19:22;;;;;;;7.55;2.60;;;;;;;5.96;83.59;99564.97;4984414;28;20055;-63
2021/03/13 02:21:53;;;;;;;14.05;3.60;;;;;;;6.04;84.32;99555.38;4987083;28;20059;-64
2021/03/13 02:24:39;;;;;;;11.48;3.40;;;;;;;6.00;83.77;99558.06;4981669;28;20046;-61
2021/03/13 02:27:11;;;;;;;11.63;2.80;;;;;;;6.05;83.83;99545.91;4989870;28;20430;-63
2021/03/13 02:29:44;;;;;;;12.00;2.78;;;;;;;5.86;84.18;99533.31;4984019;28;20042;-61
2021/03/13 02:32:17;;;;;;;7.57;2.50;;;;;;;5.79;84.97;99531.75;4987053;28;20050;-62
2021/03/13 02:34:44;;;;;;;8.85;2.63;;;;;;;5.68;84.99;99531.97;4983819;28;20047;-62
2021/03/13 02:37:17;;;;;;;8.13;2.90;;;;;;;5.69;85.43;99527.63;4982800;28;20050;-62
2021/03/13 02:39:47;;;;;;;7.32;2.90;;;;;;;5.90;84.49;99504.00;4988753;28;20412;-63
2021/03/13 02:42:14;;;;;;;7.18;2.72;;;;;;;5.96;84.57;99515.06;4978273;28;20046;-60
2021/03/13 02:44:45;;;;;;;7.40;2.45;;;;;;;5.85;84.51;99508.41;4990495;28;20046;-63
2021/03/13 02:50:37;;;;;;;7.15;2.85;;;;;;;5.84;84.78;99492.94;4982353;28;20081;-61
2021/03/13 02:53:05;;;;;;;7.57;2.58;;;;;;;5.86;85.46;99489.44;4978334;28;20053;-60
2021/03/13 02:55:31;;;;;;;5.63;2.45;;;;;;;5.91;84.90;99471.28;4985105;28;20051;-61
2021/03/13 02:58:00;;;;;;;5.95;2.30;;;;;;;5.78;85.38;99478.44;4977154;28;20504;-62
2021/03/13 03:00:31;;;;;;;7.45;2.20;;;;;;;5.95;84.94;99472.06;4987397;28;20050;-62
2021/03/13 03:03:00;;;;;;;6.18;2.25;;;;;;;5.85;84.99;99461.13;4987467;28;20053;-63
2021/03/13 03:05:28;;;;;;;8.43;2.70;;;;;;;5.93;84.86;99460.97;4989604;28;20054;-62
2021/03/13 03:07:56;;;;;;;5.70;2.45;;;;;;;5.93;84.77;99437.72;4986406;28;20066;-64
2021/03/13 03:10:25;;;;;;;7.40;2.10;;;;;;;5.95;84.91;99431.66;4978979;28;20046;-58
2021/03/13 03:12:52;;;;;;;7.93;2.35;;;;;;;5.94;85.33;99426.53;4989697;28;20074;-60
2021/03/13 03:15:23;;;;;;;8.00;2.30;;;;;;;5.93;85.17;99417.91;4991922;28;20077;-61
2021/03/13 03:17:50;;;;;;;6.03;2.10;;;;;;;6.01;85.28;99402.31;4987429;28;20508;-61
2021/03/13 03:20:18;;;;;;;5.53;1.92;;;;;;;6.00;85.30;99395.44;4986760;28;20463;-60
2021/03/13 03:22:44;;;;;;;6.22;2.17;;;;;;;5.85;85.43;99389.69;4987093;28;20065;-62
2021/03/13 03:25:11;;;;;;;7.65;2.60;;;;;;;5.96;85.36;99383.44;4979729;28;20050;-63
2021/03/13 03:27:49;;;;;;;6.85;2.17;;;;;;;5.93;85.40;99379.22;4983001;28;20090;-60
2021/03/13 03:30:18;;;;;;;6.30;1.70;;;;;;;5.94;85.66;99356.84;4988234;28;20054;-62
2021/03/13 03:32:45;;;;;;;5.60;1.63;;;;;;;5.97;85.15;99352.47;4989859;28;20046;-63
2021/03/13 03:35:13;;;;;;;7.05;2.00;;;;;;;6.02;85.30;99347.22;4981895;28;20050;-63
2021/03/13 03:37:39;;;;;;;5.35;1.55;;;;;;;6.01;85.62;99340.38;4978851;28;20102;-62
2021/03/13 03:40:07;;;;;;;8.75;2.15;;;;;;;5.82;85.59;99325.28;4984288;28;20054;-64
2021/03/13 03:42:34;;;;;;;8.63;1.52;;;;;;;5.93;85.46;99332.75;4984928;28;20428;-63
2021/03/13 03:45:01;;;;;;;4.85;1.90;;;;;;;5.91;85.50;99331.94;4987876;28;20049;-62
2021/03/13 03:47:30;;;;;;;6.63;2.05;;;;;;;5.91;85.67;99306.13;4980646;28;20607;-63
2021/03/13 03:49:56;;;;;;;8.20;1.95;;;;;;;5.94;85.60;99305.22;4981188;28;20508;-63
2021/03/13 03:52:23;;;;;;;5.38;1.77;;;;;;;6.11;85.06;99308.28;4983673;28;20050;-62
2021/03/13 03:54:51;;;;;;;3.67;1.50;;;;;;;6.15;84.94;99291.81;4981206;28;20046;-62
2021/03/13 03:57:18;;;;;;;8.57;1.60;;;;;;;6.10;85.44;99290.22;4985201;28;20146;-61
2021/03/13 03:59:45;;;;;;;5.90;1.92;;;;;;;6.07;85.96;99288.59;4988930;28;20053;-62
2021/03/13 04:02:13;;;;;;;6.18;1.80;;;;;;;6.03;85.29;99274.06;4987785;28;20096;-63
2021/03/13 04:04:41;;;;;;;7.95;1.23;;;;;;;6.14;84.63;99274.63;4978196;28;20515;-61
2021/03/13 04:07:08;;;;;;;6.00;1.42;;;;;;;6.10;84.90;99270.44;4986632;28;20050;-61
2021/03/13 04:09:38;;;;;;;3.85;1.48;;;;;;;6.12;85.15;99260.06;4991000;28;20038;-63
2021/03/13 04:12:08;;;;;;;4.53;1.42;;;;;;;6.08;85.31;99251.56;4984585;28;22077;-63
2021/03/13 04:14:35;;;;;;;7.80;1.80;;;;;;;6.09;85.49;99242.94;4981863;28;20584;-62
2021/03/13 04:17:03;;;;;;;12.75;1.67;;;;;;;6.20;84.82;99234.91;4985392;28;20515;-60
2021/03/13 04:19:30;;;;;;;7.40;1.50;;;;;;;6.18;84.88;99239.28;4986218;28;20058;-63
2021/03/13 04:21:57;;;;;;;7.40;1.10;;;;;;;6.21;84.75;99227.13;4990792;28;20050;-62
2021/03/13 04:24:24;;;;;;;8.90;1.52;;;;;;;6.33;84.29;99225.97;4988037;28;20046;-64
2021/03/13 04:26:52;;;;;;;6.80;1.30;;;;;;;6.27;84.43;99214.94;4986873;28;20412;-62
2021/03/13 04:29:18;;;;;;;5.03;1.40;;;;;;;6.33;84.60;99201.88;4979325;28;20542;-61
2021/03/13 04:31:44;;;;;;;7.40;1.40;;;;;;;6.39;84.18;99204.28;4989341;28;20051;-61
2021/03/13 04:34:11;;;;;;;6.82;1.70;;;;;;;6.35;83.67;99182.88;4984674;28;20076;-62
2021/03/13 04:36:38;;;;;;;4.38;0.98;;;;;;;6.49;83.80;99184.22;4989869;28;20050;-63
2021/03/13 04:39:05;;;;;;;7.72;1.13;;;;;;;6.40;83.99;99168.97;4988541;28;20049;-61
2021/03/13 04:41:33;;;;;;;5.78;1.83;;;;;;;6.43;84.07;99174.94;4994674;28;20054;-62
2021/03/13 04:44:00;;;;;;;9.13;2.53;;;;;;;6.25;84.83;99159.91;4983916;28;20090;-64
2021/03/13 04:46:27;;;;;;;5.05;1.33;;;;;;;6.40;84.56;99151.75;4997071;28;20068;-64
2021/03/13 04:48:53;;;;;;;4.65;1.38;;;;;;;6.40;84.30;99144.00;4989668;28;20575;-62
2021/03/13 04:51:20;;;;;;;5.00;1.17;;;;;;;6.41;84.40;99121.59;4991964;28;20057;-64
2021/03/13 04:53:46;;;;;;;4.72;1.20;;;;;;;6.41;84.47;99132.78;4990272;28;20397;-63
2021/03/13 04:56:13;;;;;;;5.95;1.00;;;;;;;6.36;84.10;99122.59;4991621;28;20047;-61
2021/03/13 04:58:40;;;;;;;7.28;1.17;;;;;;;6.30;85.12;99106.41;4986369;28;20042;-64
2021/03/13 05:01:07;;;;;;;6.13;1.50;;;;;;;6.38;85.01;99091.56;4989215;28;20191;-62
2021/03/13 05:03:33;;;;;;;7.22;0.98;;;;;;;6.39;84.88;99082.91;4980819;28;20482;-63
2021/03/13 05:05:59;;;;;;;10.25;1.60;;;;;;;6.44;84.51;99077.63;4982420;28;20054;-63
2021/03/13 05:08:25;;;;;;;6.80;1.13;;;;;;;6.51;84.09;99079.97;4994300;28;20050;-63
2021/03/13 05:10:51;;;;;;;2.97;0.98;;;;;;;6.53;84.07;99069.59;4983038;28;20496;-63
2021/03/13 05:13:17;;;;;;;6.75;0.80;;;;;;;6.49;83.62;99070.56;4986856;28;20439;-63
2021/03/13 05:15:43;;;;;;;5.25;1.05;;;;;;;6.51;83.87;99061.03;4990442;28;20046;-63
2021/03/13 05:18:10;;;;;;;5.57;1.10;;;;;;;6.49;83.69;99045.59;4986051;28;20082;-64
2021/03/13 05:20:36;;;;;;;7.32;0.90;;;;;;;6.65;83.46;99037.38;4991223;28;20054;-63
2021/03/13 05:23:02;;;;;;;4.38;0.77;;;;;;;6.47;83.54;99041.38;4996697;28;20046;-63
2021/03/13 05:25:28;;;;;;;6.28;1.20;;;;;;;6.47;83.98;99047.38;5002047;28;20448;-63
2021/03/13 05:27:54;;;;;;;7.90;1.20;;;;;;;6.52;83.59;99042.94;4986236;28;20054;-63
2021/03/13 05:30:21;;;;;;;3.00;0.88;;;;;;;6.52;83.67;99029.16;4986605;28;20058;-63
2021/03/13 05:32:47;;;;;;;3.05;0.65;;;;;;;6.53;83.99;99021.38;4986177;28;20054;-62
2021/03/13 05:35:14;;;;;;;5.43;1.02;;;;;;;6.62;83.48;99006.50;4986756;28;20049;-62
2021/03/13 05:37:41;;;;;;;3.97;1.83;;;;;;;6.62;83.70;99009.06;4994191;28;20046;-60
2021/03/13 05:40:09;;;;;;;2.28;0.45;;;;;;;6.62;83.87;99004.72;4988273;28;20523;-63
2021/03/13 05:42:37;;;;;;;6.07;0.80;;;;;;;6.63;83.79;98990.94;4988466;28;20077;-62
2021/03/13 05:45:06;;;;;;;6.15;0.75;;;;;;;6.80;83.10;98989.53;4983837;28;20496;-62
2021/03/13 05:47:32;;;;;;;5.38;0.75;;;;;;;6.77;83.41;98984.50;4985418;28;20066;-64
2021/03/13 05:50:02;;;;;;;2.97;0.70;;;;;;;6.82;82.81;98980.00;4984959;28;20500;-63
2021/03/13 05:52:32;;;;;;;6.82;0.88;;;;;;;6.72;83.14;98963.97;4980885;28;20050;-64
2021/03/13 05:54:59;;;;;;;3.53;0.70;;;;;;;6.59;84.10;98957.50;4984227;28;20058;-61
2021/03/13 05:57:25;;;;;;;7.78;1.00;;;;;;;6.61;84.22;98953.97;4986343;28;20049;-64
2021/03/13 05:59:51;;;;;;;3.72;0.80;;;;;;;6.53;84.43;98928.38;4984074;28;20042;-63
2021/03/13 06:02:18;;;;;;;7.57;1.55;;;;;;;6.66;83.61;98930.56;4987994;28;20061;-58
2021/03/13 06:04:44;;;;;;;7.82;1.33;;;;;;;6.69;83.78;98933.03;4983144;28;20042;-60
2021/03/13 06:07:14;;;;;;;3.97;1.02;;;;;;;6.63;84.13;98931.50;4986809;28;20046;-61
2021/03/13 06:09:41;;;;;;;4.35;1.05;;;;;;;6.73;83.01;98913.97;4980138;28;20051;-60
2021/03/13 06:12:09;;;;;;;8.20;0.90;;;;;;;6.90;83.06;98902.22;4980576;28;20050;-64
2021/03/13 06:14:35;;;;;;;4.80;0.70;;;;;;;6.84;82.73;98893.78;4989204;28;20042;-62
2021/03/13 06:17:01;;;;;;;5.95;1.02;;;;;;;6.88;82.69;98896.25;4986129;28;20058;-64
2021/03/13 06:19:46;;;;;;;7.90;1.10;;;;;;;6.93;82.27;98896.97;4980754;28;20113;-63
2021/03/13 06:22:32;;;;;;;5.28;1.25;;;;;;;6.98;81.89;98890.75;4985632;28;20074;-62
2021/03/13 06:25:16;;;;;;;5.43;0.77;;;;;;;6.94;82.26;98885.69;4984242;28;20112;-64
2021/03/13 06:27:43;;;;;;;6.90;1.15;;;;;;;6.97;82.09;98880.44;4986423;28;20057;-64
2021/03/13 06:30:12;;;;;;;2.00;0.60;;;;;;;6.88;82.06;98871.28;4983407;28;20050;-63
2021/03/13 06:32:39;;;;;;;4.05;0.57;;;;;;;6.95;81.93;98861.53;4989469;28;20049;-60
2021/03/13 06:35:18;;;;;;;4.78;0.70;;;;;;;6.98;81.86;98858.88;4986600;28;20074;-64
2021/03/13 06:37:45;;;;;;;5.20;0.80;;;;;;;7.00;81.48;98864.81;4987218;28;20496;-62
2021/03/13 06:40:26;;;;;;;4.25;1.13;;;;;;;6.99;81.18;98869.13;4989209;28;20074;-63
2021/03/13 06:42:52;;;;;;;4.68;0.82;;;;;;;7.02;81.05;98857.88;4985011;28;20057;-63
2021/03/13 06:45:19;;;;;;;4.03;0.75;;;;;;;7.11;81.20;98854.09;4985890;28;20058;-62
2021/03/13 06:47:46;;;;;;;7.15;0.95;;;;;;;7.12;80.41;98837.69;4984094;28;20459;-63
2021/03/13 06:50:13;;;;;;;4.45;1.10;;;;;;;7.13;80.29;98849.72;4986902;28;20050;-63
2021/03/13 06:52:41;;;;;;;3.33;0.65;;;;;;;7.09;80.33;98845.53;4981722;28;20459;-62
2021/03/13 06:55:14;;;;;;;3.60;0.70;;;;;;;7.16;80.77;98823.78;4985483;28;20389;-62
2021/03/13 06:57:41;;;;;;;3.50;0.68;;;;;;;7.15;80.79;98856.53;4985557;28;20051;-62
2021/03/13 07:00:08;;;;;;;2.42;0.82;;;;;;;7.02;81.67;98847.53;4989179;28;20050;-63
2021/03/13 07:02:34;;;;;;;2.72;0.75;;;;;;;7.08;81.31;98860.22;4979561;28;23008;-61
2021/03/13 07:05:07;;;;;;;5.97;0.73;;;;;;;7.03;81.89;98859.56;4979953;28;20505;-63
2021/03/13 07:07:33;;;;;;;4.60;0.60;;;;;;;6.98;82.02;98874.38;4986647;28;20049;-63
2021/03/13 07:10:00;;;;;;;6.07;0.80;;;;;;;6.94;83.21;98963.25;4984504;28;20122;-61
2021/03/13 07:12:30;;;;;;;5.25;0.75;;;;;;;6.76;81.99;98988.78;4983567;28;20061;-63
2021/03/13 07:15:11;;;;;;;4.20;0.90;;;;;;;6.00;83.08;99009.13;4979378;28;20439;-63
2021/03/13 07:17:39;;;;;;;5.85;0.80;;;;;;;5.85;82.49;98939.88;4982265;28;20445;-63
2021/03/13 07:20:06;;;;;;;5.20;0.95;;;;;;;5.84;82.26;98943.34;4979471;28;20124;-62
2021/03/13 07:22:33;;;;;;;4.35;1.10;;;;;;;5.96;82.19;98939.56;4986852;28;20475;-64
2021/03/13 07:25:01;;;;;;;6.78;1.40;;;;;;;5.80;81.82;98926.25;4981372;28;20448;-61
2021/03/13 07:27:30;;;;;;;3.42;0.80;;;;;;;5.88;81.00;98922.56;4977229;28;20065;-66
2021/03/13 07:29:58;;;;;;;4.32;1.30;;;;;;;5.72;81.67;98934.22;4980734;28;22569;-64
2021/03/13 07:32:27;;;;;;;4.97;1.00;;;;;;;5.81;81.21;98936.53;4978894;28;20413;-64
2021/03/13 07:34:57;;;;;;;3.15;0.60;;;;;;;5.94;81.45;98941.34;4976405;28;20138;-62
2021/03/13 07:37:24;;;;;;;2.63;0.70;;;;;;;5.97;80.59;98943.81;4977778;28;20073;-64
2021/03/13 07:39:51;;;;;;;3.47;0.60;;;;;;;6.05;80.95;98931.56;4978903;28;20496;-65
2021/03/13 07:42:19;;;;;;;2.72;0.50;;;;;;;6.01;81.31;98932.56;4984103;28;20069;-64
2021/03/13 07:44:47;;;;;;;8.38;1.45;;;;;;;6.22;80.74;98939.66;4980994;28;20050;-64
2021/03/13 07:47:15;;;;;;;8.35;1.85;;;;;;;6.15;81.86;98937.31;4983273;28;20054;-65
2021/03/13 07:49:42;;;;;;;3.67;0.90;;;;;;;6.24;81.39;98955.09;4975626;28;20058;-66
2021/03/13 07:52:10;;;;;;;5.43;0.85;;;;;;;6.18;81.26;98950.97;4981840;28;20531;-65
2021/03/13 07:54:38;;;;;;;4.20;0.70;;;;;;;6.23;79.58;98950.84;4981502;28;20130;-65
2021/03/13 07:57:05;;;;;;;2.53;0.52;;;;;;;6.33;78.74;98967.72;4975080;28;20047;-65
2021/03/13 07:59:42;;;;;;;4.25;0.80;;;;;;;6.60;78.30;98974.69;4976811;28;20350;-63
2021/03/13 08:02:39;;;;;;;3.38;0.75;;;;;;;6.73;77.51;98970.81;4980056;28;20046;-62
2021/03/13 08:05:07;;;;;;;2.80;0.80;;;;;;;6.69;75.95;98956.31;4976393;28;20052;-65
2021/03/13 08:07:59;;;;;;;3.80;0.80;;;;;;;6.78;75.82;98968.94;4976793;28;20046;-62
2021/03/13 08:10:53;;;;;;;5.00;1.17;;;;;;;6.84;75.73;98975.63;4978643;28;20138;-64
2021/03/13 08:14:01;;;;;;;2.45;0.65;;;;;;;6.95;73.33;98981.31;4979087;28;20186;-64
2021/03/13 08:16:35;;;;;;;6.18;1.08;;;;;;;6.92;73.90;98980.56;4901371;29;20119;-64
2021/03/13 08:19:03;;;;;;;7.88;0.85;;;;;;;6.97;73.07;98979.53;4905887;29;20048;-64
2021/03/13 08:21:39;;;;;;;8.05;1.45;;;;;;;7.00;73.23;98968.22;4948399;28;20578;-63
2021/03/13 08:24:06;;;;;;;3.13;1.10;;;;;;;7.15;73.23;98983.22;4980263;28;20152;-65
2021/03/13 08:27:05;;;;;;;5.43;0.80;;;;;;;7.13;71.67;98979.84;4982064;28;20086;-62
2021/03/13 08:30:00;;;;;;;5.53;0.80;;;;;;;7.13;71.71;98995.38;4980624;28;20050;-65
2021/03/13 08:32:59;;;;;;;2.80;0.80;;;;;;;7.16;72.13;98994.41;4983154;28;20065;-66
2021/03/13 08:35:40;;;;;;;6.05;1.13;;;;;;;7.33;72.18;98999.03;4898511;29;20053;-63
2021/03/13 08:38:07;;;;;;;4.63;0.65;;;;;;;7.36;72.40;99001.50;4973345;28;20405;-67
2021/03/13 08:40:34;;;;;;;4.45;0.73;;;;;;;7.36;72.82;99001.50;4983874;28;20457;-65
2021/03/13 08:43:00;;;;;;;3.40;0.50;;;;;;;7.34;71.82;98994.69;4983148;28;20081;-64
2021/03/13 08:45:34;;;;;;;3.92;0.55;;;;;;;7.21;71.18;98992.50;4984781;28;20069;-63
2021/03/13 08:48:00;;;;;;;5.57;0.80;;;;;;;7.26;70.83;99005.28;4982211;28;20535;-65
2021/03/13 08:50:52;;;;;;;7.85;0.90;;;;;;;7.12;71.08;98990.22;4980590;28;20073;-64
2021/03/13 08:53:33;;;;;;;7.53;1.10;;;;;;;7.22;71.02;99003.72;4979090;28;20050;-65
2021/03/13 08:55:59;;;;;;;6.72;1.77;;;;;;;7.27;70.35;99004.38;4980962;28;20042;-63
2021/03/13 08:58:41;;;;;;;9.32;1.50;;;;;;;7.34;71.44;99008.44;4984322;28;20048;-64
2021/03/13 09:01:15;;;;;;;5.53;0.88;;;;;;;7.62;70.24;99008.34;4978566;28;20061;-65
2021/03/13 09:03:44;;;;;;;9.52;1.48;;;;;;;7.49;70.26;98985.56;4983089;28;20046;-63
2021/03/13 09:06:11;;;;;;;5.28;0.90;;;;;;;7.53;70.59;98989.75;4986833;28;20105;-63
2021/03/13 09:08:37;;;;;;;10.52;1.23;;;;;;;7.50;70.77;98988.06;4987286;28;20097;-56
2021/03/13 09:11:03;;;;;;;11.38;2.63;;;;;;;7.59;70.80;99002.44;4980182;28;20046;-63
2021/03/13 09:13:29;;;;;;;5.55;1.05;;;;;;;7.85;69.85;98998.06;4978065;28;20097;-63
2021/03/13 09:15:55;;;;;;;9.15;1.20;;;;;;;7.91;69.23;99003.06;4983701;28;20077;-62
2021/03/13 09:18:21;;;;;;;5.88;1.08;;;;;;;7.80;68.95;98994.81;4985085;28;20492;-65
2021/03/13 09:20:47;;;;;;;9.45;1.33;;;;;;;7.74;69.70;98988.13;4985670;28;20551;-69
2021/03/13 09:23:14;;;;;;;7.63;1.45;;;;;;;7.81;70.13;98980.97;4982759;28;20121;-63
2021/03/13 09:25:40;;;;;;;6.53;1.15;;;;;;;7.71;70.31;98975.28;4985901;28;20105;-61
2021/03/13 09:28:06;;;;;;;4.38;1.13;;;;;;;7.84;70.35;98975.69;4981223;28;20429;-63
2021/03/13 09:30:35;;;;;;;3.83;1.08;;;;;;;7.89;70.06;98968.59;4980641;28;20050;-61
2021/03/13 09:33:01;;;;;;;9.40;1.67;;;;;;;7.78;69.37;98956.06;4984256;28;20047;-65
2021/03/13 09:35:28;;;;;;;9.00;1.35;;;;;;;7.98;69.50;98957.06;4984969;28;20046;-65
2021/03/13 09:37:55;;;;;;;7.07;1.27;;;;;;;7.99;69.17;98948.38;4987762;28;20043;-64
2021/03/13 09:40:23;;;;;;;7.15;1.10;;;;;;;7.86;68.65;98954.03;4983354;28;20054;-65
2021/03/13 09:42:50;;;;;;;6.20;1.15;;;;;;;7.76;70.12;98956.09;4983755;28;20058;-65
2021/03/13 09:45:18;;;;;;;5.93;0.95;;;;;;;7.89;69.29;98932.34;4987104;28;20105;-61
2021/03/13 09:47:46;;;;;;;9.15;1.23;;;;;;;7.98;70.08;98916.47;4985539;28;20050;-65
2021/03/13 09:50:14;;;;;;;7.65;1.58;;;;;;;8.05;68.85;98949.00;4984128;28;20049;-65
2021/03/13 09:52:41;;;;;;;9.32;2.00;;;;;;;8.11;70.50;98947.09;4982513;28;20042;-63
2021/03/13 09:55:10;;;;;;;10.07;1.83;;;;;;;8.17;68.41;98937.34;4981044;28;20165;-62
2021/03/13 09:57:38;;;;;;;8.27;1.48;;;;;;;8.15;67.39;98939.16;4974934;28;20108;-63
2021/03/13 10:00:07;;;;;;;8.88;1.17;;;;;;;8.40;68.10;98949.41;4978270;28;20112;-63
2021/03/13 10:02:33;;;;;;;7.65;1.98;;;;;;;8.38;67.86;98938.25;4986183;28;20042;-63
2021/03/13 10:05:00;;;;;;;8.30;1.40;;;;;;;8.43;67.73;98948.44;4981675;28;20046;-64
2021/03/13 10:07:26;;;;;;;14.30;1.83;;;;;;;8.46;66.87;98963.00;4984394;28;20141;-63
2021/03/13 10:09:58;;;;;;;7.57;2.25;;;;;;;8.37;65.57;98962.47;4986972;28;20054;-63
2021/03/13 10:12:29;;;;;;;11.13;2.20;;;;;;;8.37;65.14;98957.28;4979165;28;20075;-66
2021/03/13 10:15:10;;;;;;;10.48;1.83;;;;;;;8.25;65.20;98955.16;4980976;28;20042;-64
2021/03/13 10:17:49;;;;;;;8.35;2.85;;;;;;;8.42;64.72;98972.66;4989089;28;20090;-66
2021/03/13 10:20:16;;;;;;;11.05;1.75;;;;;;;8.29;63.04;98955.88;4980950;28;20062;-68
2021/03/13 10:22:42;;;;;;;11.05;2.13;;;;;;;8.31;63.76;98967.91;4984059;28;20065;-68
2021/03/13 10:25:09;;;;;;;14.23;2.63;;;;;;;8.31;63.93;98962.72;4984764;28;20049;-68
2021/03/13 10:27:36;;;;;;;11.98;2.30;;;;;;;8.32;63.51;98959.22;4985205;28;20504;-65
2021/03/13 10:30:07;;;;;;;11.18;1.65;;;;;;;8.35;62.95;98955.66;4986126;28;20050;-68
2021/03/13 10:32:35;;;;;;;14.38;2.17;;;;;;;8.43;63.95;98966.56;4986324;28;20039;-64
2021/03/13 10:35:20;;;;;;;10.32;1.73;;;;;;;8.64;64.27;98969.25;4983106;28;20055;-66
2021/03/13 10:37:46;;;;;;;;;;;;;;;8.86;62.72;98964.91;4980438;28;20054;-66
2021/03/13 10:40:29;;;;;;;10.52;2.00;;;;;;;8.96;60.90;98956.75;4982144;28;19932;-69
2021/03/13 10:43:19;;;;;;;13.18;2.90;;;;;;;9.10;59.89;98956.16;4987368;28;20050;-66
2021/03/13 10:46:00;;;;;;;10.57;1.63;;;;;;;8.98;59.75;98962.72;4985528;28;20042;-62
2021/03/13 10:48:27;;;;;;;10.98;2.03;;;;;;;8.90;58.63;98947.47;4983091;28;20081;-67
2021/03/13 10:50:55;;;;;;;16.08;2.17;;;;;;;8.95;58.55;98955.88;4982293;28;20047;-64
2021/03/13 10:53:27;;;;;;;15.10;2.38;;;;;;;8.82;58.87;98965.09;4985697;28;20089;-65
2021/03/13 10:55:53;;;;;;;15.45;2.05;;;;;;;8.97;58.70;98959.25;4987736;28;20515;-64
2021/03/13 10:58:22;;;;;;;12.68;2.17;;;;;;;9.20;59.58;98969.56;4981813;28;20051;-60
2021/03/13 11:00:49;;;;;;;11.18;2.00;;;;;;;9.13;58.42;98966.41;4976356;28;20755;-65
2021/03/13 11:03:15;;;;;;;11.32;1.85;;;;;;;8.97;59.04;98990.38;4975546;28;20062;-65
2021/03/13 11:05:41;;;;;;;11.60;2.13;;;;;;;8.85;63.96;98991.72;4984108;28;20077;-57
2021/03/13 11:08:10;;;;;;;9.52;1.65;;;;;;;8.64;68.21;98985.63;4978371;28;20058;-64
2021/03/13 11:10:37;;;;;;;13.85;2.90;;;;;;;8.25;69.92;98989.69;4985249;28;20707;-60
2021/03/13 11:13:03;;;;;;;11.10;1.90;;;;;;;8.04;70.63;98978.38;4984855;28;20527;-64
2021/03/13 11:15:29;;;;;;;14.05;1.88;;;;;;;7.95;70.78;98981.31;4985062;28;20177;-65
2021/03/13 11:17:55;;;;;;;16.08;1.77;;;;;;;7.77;71.56;98985.44;4982236;28;20102;-63
2021/03/13 11:20:21;;;;;;;13.52;2.15;;;;;;;7.76;70.61;98973.38;4983710;28;20504;-62
2021/03/13 11:22:47;;;;;;;17.23;2.30;;;;;;;7.59;74.10;98972.22;4980906;28;20420;-67
2021/03/13 11:25:14;;;;;;;17.25;2.75;;;;;;;7.75;73.26;98975.13;4984064;28;20046;-68
2021/03/13 11:27:40;;;;;;;13.90;2.53;;;;;;;7.90;72.16;98976.31;4980421;28;20050;-67
2021/03/13 11:30:08;;;;;;;11.65;2.75;;;;;;;8.00;73.31;98948.34;4981550;28;20054;-64
2021/03/13 11:32:34;;;;;;;16.25;2.97;;;;;;;8.16;66.08;98939.97;4988131;28;20069;-65
2021/03/13 11:35:00;;;;;;;19.13;2.20;;;;;;;8.46;64.67;98937.94;4983712;28;20122;-62
2021/03/13 11:37:26;;;;;;;16.67;2.72;;;;;;;8.71;62.55;98940.44;4985115;28;20042;-62
2021/03/13 11:39:52;;;;;;;15.30;2.38;;;;;;;8.74;60.99;98948.97;4985979;28;20046;-62
2021/03/13 11:42:18;;;;;;;12.23;2.00;;;;;;;8.82;61.03;98954.72;4981072;28;20062;-65
2021/03/13 11:44:44;;;;;;;13.10;2.17;;;;;;;8.90;61.40;98937.09;4980143;28;20048;-66
2021/03/13 11:47:10;;;;;;;20.75;2.70;;;;;;;9.09;62.24;98923.34;4982612;28;20436;-64
2021/03/13 11:49:36;;;;;;;14.25;2.88;;;;;;;9.31;62.99;98944.88;4984631;28;20050;-62
2021/03/13 11:52:04;;;;;;;16.50;1.92;;;;;;;9.40;61.87;98922.03;4980808;28;20534;-65
2021/03/13 11:54:30;;;;;;;14.80;2.10;;;;;;;9.46;61.19;98934.72;4984594;28;20046;-62